Time;durP1;ratioP1;P1;durP2;ratioP2;P2;SDS_P1;SDS_P2;PMS_P1;PMS_P2;Temp;Humidity;BMP_temperature;BMP_pressure;BME280_temperature;BME280_humidity;BME280_pressure;Samples;Min_cycle;Max_cycle;Signal;HPM_P1;HPM_P2
2022/08/02 00:00:20;;;;;;;5.70;3.17;;;;;;;22.29;56.02;99697.03;7633603;32;37958;-76
2022/08/02 00:04:36;;;;;;;3.90;3.20;;;;;;;22.15;56.57;99693.84;7633495;32;37157;-74
2022/08/02 00:08:53;;;;;;;4.85;2.87;;;;;;;21.99;56.92;99682.63;7632954;32;39467;-76
2022/08/02 00:13:09;;;;;;;4.55;3.10;;;;;;;21.93;56.99;99693.19;7633282;32;40187;-77
2022/08/02 00:17:25;;;;;;;5.37;3.42;;;;;;;22.11;56.35;99683.44;7633330;32;37902;-77
2022/08/02 00:21:41;;;;;;;5.20;3.35;;;;;;;22.16;56.41;99678.78;7633192;32;37173;-77
2022/08/02 00:25:57;;;;;;;5.12;3.42;;;;;;;22.13;56.78;99680.31;7633352;32;40067;-73
2022/08/02 00:30:13;;;;;;;6.18;2.90;;;;;;;22.10;57.20;99686.56;7633189;32;40116;-78
2022/08/02 00:34:29;;;;;;;6.03;3.42;;;;;;;22.18;56.16;99680.06;7632874;32;37979;-77
2022/08/02 00:38:52;;;;;;;4.47;3.13;;;;;;;22.18;55.94;99676.44;7633372;32;37046;-76
2022/08/02 00:43:09;;;;;;;7.32;3.10;;;;;;;21.98;56.16;99678.25;7633165;32;39260;-75
2022/08/02 00:47:25;;;;;;;5.00;3.42;;;;;;;21.98;55.83;99684.62;7632963;32;40066;-77
2022/08/02 00:51:41;;;;;;;4.22;3.00;;;;;;;21.93;55.84;99682.88;7619363;32;38063;-76
2022/08/02 00:55:58;;;;;;;4.15;3.22;;;;;;;21.80;56.21;99686.88;7632898;32;37512;-77
2022/08/02 01:00:14;;;;;;;6.65;3.33;;;;;;;21.66;56.87;99695.56;7632884;32;40032;-75
2022/08/02 01:04:30;;;;;;;5.82;3.87;;;;;;;21.84;56.04;99684.19;7632642;32;40121;-77
2022/08/02 01:08:47;;;;;;;6.18;3.10;;;;;;;21.68;56.66;99687.69;7632633;32;38411;-77
2022/08/02 01:13:03;;;;;;;5.03;3.47;;;;;;;21.52;57.38;99689.53;7632811;32;36680;-77
2022/08/02 01:17:35;;;;;;;5.85;3.50;;;;;;;21.38;57.66;99682.34;7632725;32;39014;-76
2022/08/02 01:22:10;;;;;;;5.87;3.55;;;;;;;21.43;57.41;99686.06;7632573;32;40577;-77
2022/08/02 01:26:59;;;;;;;5.82;3.35;;;;;;;21.15;58.55;99692.31;7632583;32;37875;-77
2022/08/02 01:31:17;;;;;;;8.20;3.70;;;;;;;21.25;58.01;99702.09;7632164;32;36861;-77
2022/08/02 01:35:37;;;;;;;8.55;3.97;;;;;;;21.01;58.44;99709.25;7618974;32;39042;-76
2022/08/02 01:40:18;;;;;;;3.45;3.03;;;;;;;20.85;59.11;99705.53;7620865;32;39898;-77
2022/08/02 01:44:37;;;;;;;5.10;3.10;;;;;;;20.95;58.98;99703.13;7632422;32;37884;-77
2022/08/02 01:48:55;;;;;;;4.57;3.20;;;;;;;20.69;59.89;99699.84;7619391;32;36772;-76
2022/08/02 01:53:11;;;;;;;4.78;3.42;;;;;;;20.94;58.70;99701.50;7632331;32;40486;-76
2022/08/02 01:57:31;;;;;;;6.07;3.53;;;;;;;20.96;58.64;99701.97;7618843;32;39683;-77
2022/08/02 02:01:49;;;;;;;7.03;3.78;;;;;;;21.07;58.11;99710.63;7618955;32;37992;-78
2022/08/02 02:06:07;;;;;;;6.90;3.60;;;;;;;20.74;59.59;99732.84;7632235;32;37882;-76
2022/08/02 02:10:26;;;;;;;5.75;3.45;;;;;;;20.45;60.24;99742.87;7632420;32;39147;-77
2022/08/02 02:14:43;;;;;;;4.72;3.47;;;;;;;20.54;59.69;99735.31;7631928;32;40776;-76
2022/08/02 02:19:08;;;;;;;6.22;3.15;;;;;;;20.75;59.19;99746.38;7630726;32;38755;-76
2022/08/02 02:23:24;;;;;;;6.25;3.20;;;;;;;20.72;59.52;99754.56;7618721;32;37221;-75
2022/08/02 02:27:59;;;;;;;7.70;3.60;;;;;;;20.68;59.49;99756.38;7631810;32;40192;-77
2022/08/02 02:32:16;;;;;;;8.63;3.65;;;;;;;20.68;59.85;99756.38;7619194;32;40032;-76
2022/08/02 02:36:33;;;;;;;5.68;3.65;;;;;;;20.40;60.97;99756.91;7631563;32;37933;-76
2022/08/02 02:40:50;;;;;;;5.35;3.75;;;;;;;20.35;60.99;99760.72;7631719;32;37848;-76
2022/08/02 02:45:08;;;;;;;5.55;3.33;;;;;;;20.32;60.73;99772.47;7631627;32;39409;-75
2022/08/02 02:49:25;;;;;;;7.05;4.00;;;;;;;20.57;60.07;99762.28;7618341;32;40034;-76
2022/08/02 02:53:43;;;;;;;6.43;3.53;;;;;;;20.40;60.92;99756.91;7617949;32;38762;-77
2022/08/02 02:58:19;;;;;;;6.15;4.05;;;;;;;20.69;59.91;99749.69;7619762;32;38927;-76
2022/08/02 03:02:44;;;;;;;6.82;3.50;;;;;;;20.67;59.63;99752.78;7631251;32;40078;-77
2022/08/02 03:07:00;;;;;;;4.62;3.40;;;;;;;20.63;59.56;99758.22;7631173;32;40806;-76
2022/08/02 03:11:16;;;;;;;6.30;3.37;;;;;;;20.54;59.71;99743.63;7630763;32;38897;-76
2022/08/02 03:15:33;;;;;;;5.87;3.80;;;;;;;20.39;60.24;99750.56;7617469;32;37096;-76
2022/08/02 03:19:49;;;;;;;6.68;3.72;;;;;;;20.39;60.29;99755.31;7617736;32;38150;-76
2022/08/02 03:24:05;;;;;;;4.87;3.62;;;;;;;20.40;60.52;99745.84;7630429;32;39699;-76
2022/08/02 03:28:22;;;;;;;5.75;4.07;;;;;;;20.37;60.72;99749.28;7617052;32;37828;-77
2022/08/02 03:32:40;;;;;;;5.93;3.50;;;;;;;20.31;60.86;99740.38;7633051;32;37039;-77
2022/08/02 03:36:56;;;;;;;5.25;3.58;;;;;;;20.24;61.52;99765.03;7620646;32;40066;-77
2022/08/02 03:41:15;;;;;;;6.12;3.60;;;;;;;20.44;61.41;99760.66;7620460;32;39833;-77
2022/08/02 03:45:31;;;;;;;10.25;4.10;;;;;;;20.48;61.08;99761.56;7633777;32;38107;-77
2022/08/02 03:49:48;;;;;;;5.65;3.65;;;;;;;20.41;61.25;99766.84;7633654;32;37395;-79
2022/08/02 03:54:04;;;;;;;7.28;4.05;;;;;;;20.45;60.88;99778.84;7633423;32;39991;-77
2022/08/02 03:58:22;;;;;;;8.38;4.15;;;;;;;20.34;61.25;99775.69;7618353;32;40716;-77
2022/08/02 04:02:38;;;;;;;6.70;3.65;;;;;;;20.42;60.79;99774.00;7632274;32;38009;-77
2022/08/02 04:06:54;;;;;;;8.82;3.85;;;;;;;20.38;60.92;99761.97;7616618;32;37146;-78
2022/08/02 04:15:48;;;;;;;4.82;3.42;;;;;;;20.39;61.14;99766.38;7632306;32;40600;-78
2022/08/02 04:20:07;;;;;;;8.63;3.83;;;;;;;20.53;60.75;99761.38;7631779;32;38674;-78
2022/08/02 04:24:27;;;;;;;4.87;3.75;;;;;;;20.52;60.54;99770.00;7633210;32;37863;-80
2022/08/02 04:28:43;;;;;;;9.07;4.15;;;;;;;20.26;61.65;99777.41;7618694;32;39087;-78
2022/08/02 04:33:00;;;;;;;5.53;3.72;;;;;;;20.40;61.24;99779.06;7632276;32;40065;-78
2022/08/02 04:37:16;;;;;;;5.15;3.60;;;;;;;20.60;60.83;99775.47;7618140;32;37811;-74
2022/08/02 04:41:38;;;;;;;8.43;3.90;;;;;;;20.67;60.42;99779.69;7619347;32;36019;-75
2022/08/02 04:46:01;;;;;;;9.13;4.22;;;;;;;20.68;60.29;99784.91;7631940;32;39580;-73
2022/08/02 04:50:19;;;;;;;8.63;3.92;;;;;;;20.98;59.45;99784.75;7632337;32;40655;-74
2022/08/02 04:54:35;;;;;;;4.32;3.30;;;;;;;21.19;58.84;99776.38;7632590;32;37797;-73
2022/08/02 04:58:51;;;;;;;6.72;3.90;;;;;;;21.37;58.51;99783.34;7631980;32;37184;-78
2022/08/02 05:03:08;;;;;;;8.13;3.78;;;;;;;21.42;58.42;99795.34;7632772;32;40242;-78
2022/08/02 05:07:24;;;;;;;5.07;3.92;;;;;;;21.47;58.45;99806.25;7632194;32;40912;-77
2022/08/02 05:11:40;;;;;;;10.30;4.57;;;;;;;21.50;58.38;99809.16;7631382;32;38751;-78
2022/08/02 05:16:00;;;;;;;8.75;3.65;;;;;;;21.36;58.85;99803.09;7631075;32;37444;-77
2022/08/02 05:20:17;;;;;;;8.75;4.43;;;;;;;21.59;58.51;99800.72;7632566;32;40111;-76
2022/08/02 05:24:33;;;;;;;7.30;3.60;;;;;;;21.55;59.15;99808.13;7632296;32;39684;-78
2022/08/02 05:28:49;;;;;;;4.70;3.47;;;;;;;21.73;58.30;99805.91;7632013;32;37833;-78
2022/08/02 05:33:05;;;;;;;6.32;3.40;;;;;;;21.83;57.81;99815.75;7632652;32;37780;-78
2022/08/02 05:37:21;;;;;;;6.32;4.03;;;;;;;21.98;58.05;99817.84;7632522;32;38984;-78
2022/08/02 05:41:38;;;;;;;9.10;4.55;;;;;;;22.02;57.61;99815.97;7632439;32;40096;-77
2022/08/02 05:45:54;;;;;;;6.80;3.90;;;;;;;21.99;57.67;99819.47;7631626;32;38044;-78
2022/08/02 05:50:10;;;;;;;6.25;3.67;;;;;;;22.04;57.49;99824.78;7632068;32;37105;-78
2022/08/02 05:54:40;;;;;;;7.37;3.87;;;;;;;22.38;56.78;99824.63;7630934;32;39400;-77
2022/08/02 05:59:05;;;;;;;8.70;3.53;;;;;;;22.58;56.52;99833.97;7632038;32;40744;-77
2022/08/02 06:03:30;;;;;;;7.28;4.15;;;;;;;22.88;55.74;99835.22;7619577;32;38036;-78
2022/08/02 06:07:47;;;;;;;5.07;3.60;;;;;;;22.73;55.78;99835.19;7619397;32;37046;-77
2022/08/02 06:12:04;;;;;;;5.80;3.62;;;;;;;22.95;55.03;99828.25;7630966;32;40142;-79
2022/08/02 06:16:21;;;;;;;12.40;3.78;;;;;;;22.78;56.33;99846.03;7618321;32;40064;-78
2022/08/02 06:20:50;;;;;;;8.10;3.72;;;;;;;22.97;56.10;99856.50;7631289;32;38797;-75
2022/08/02 06:25:07;;;;;;;8.75;4.00;;;;;;;22.71;56.62;99854.97;7631672;32;35799;-78
2022/08/02 06:29:45;;;;;;;7.00;3.37;;;;;;;22.88;56.32;99854.69;7630542;32;39799;-78
2022/08/02 06:34:01;;;;;;;6.68;3.65;;;;;;;23.15;55.67;99845.94;7630982;32;38973;-79
2022/08/02 06:38:21;;;;;;;14.50;3.47;;;;;;;23.73;53.54;99856.56;7631480;32;37991;-78
2022/08/02 06:42:46;;;;;;;5.85;3.42;;;;;;;23.96;52.22;99849.22;7630902;32;37189;-79
2022/08/02 06:47:02;;;;;;;4.68;3.30;;;;;;;24.00;51.66;99852.91;7631416;32;39290;-80
2022/08/02 06:51:27;;;;;;;4.70;3.10;;;;;;;24.15;52.93;99854.06;7595360;32;39850;-80
2022/08/02 06:55:43;;;;;;;4.45;3.10;;;;;;;23.71;53.48;99864.47;7605112;32;37995;-76
2022/08/02 07:00:01;;;;;;;5.68;3.50;;;;;;;23.89;52.20;99857.41;7617677;32;37135;-78
2022/08/02 07:04:17;;;;;;;7.15;3.40;;;;;;;24.06;52.09;99860.97;7630779;32;39600;-78
2022/08/02 07:08:37;;;;;;;4.47;2.95;;;;;;;24.34;51.93;99850.50;7631217;32;40585;-77
2022/08/02 07:12:53;;;;;;;5.15;3.42;;;;;;;24.62;48.45;99845.97;7630465;32;36899;-72
2022/08/02 07:17:14;;;;;;;3.72;3.22;;;;;;;24.76;49.08;99843.47;7630857;32;37098;-71
2022/08/02 07:21:30;;;;;;;4.57;3.20;;;;;;;25.06;48.38;99838.09;7630446;32;39438;-72
2022/08/02 07:26:06;;;;;;;4.60;2.70;;;;;;;25.45;48.75;99837.25;7629956;32;40354;-72
2022/08/02 07:30:22;;;;;;;5.80;2.70;;;;;;;25.94;46.23;99824.47;7630533;32;38128;-77
2022/08/02 07:34:39;;;;;;;7.32;3.20;;;;;;;25.92;46.94;99824.06;7630320;32;38193;-81
2022/08/02 07:38:57;;;;;;;4.60;2.90;;;;;;;25.64;46.37;99831.59;7630479;32;39032;-79
2022/08/02 07:43:13;;;;;;;2.62;2.40;;;;;;;26.03;45.92;99830.66;7630283;32;39599;-79
2022/08/02 07:47:29;;;;;;;4.87;2.40;;;;;;;26.62;45.34;99828.31;7630172;32;37591;-80
2022/08/02 07:51:45;;;;;;;3.35;2.10;;;;;;;26.76;43.04;99828.47;7629842;32;37575;-79
2022/08/02 07:56:01;;;;;;;4.68;2.60;;;;;;;26.97;38.39;99824.31;7629674;32;39544;-79
2022/08/02 08:00:18;;;;;;;6.90;2.70;;;;;;;26.74;40.78;99832.84;7629915;32;39898;-79
2022/08/02 08:04:34;;;;;;;4.28;2.30;;;;;;;27.31;39.81;99832.72;7629514;32;37996;-70
2022/08/02 08:08:50;;;;;;;4.55;2.50;;;;;;;27.17;41.65;99830.56;7629247;32;37353;-82
2022/08/02 08:13:06;;;;;;;5.20;2.12;;;;;;;27.41;39.42;99834.03;7616012;32;39365;-83
2022/08/02 08:17:22;;;;;;;7.55;2.50;;;;;;;27.64;37.76;99825.41;7630979;32;40081;-83
2022/08/02 08:21:38;;;;;;;7.78;2.97;;;;;;;27.46;39.52;99828.06;7619431;32;38772;-81
2022/08/02 08:25:54;;;;;;;4.47;2.22;;;;;;;27.40;36.57;99827.59;7633202;32;37240;-83
2022/08/02 08:30:11;;;;;;;3.37;2.20;;;;;;;28.14;34.92;99825.03;7632842;32;40002;-82
2022/08/02 08:34:30;;;;;;;3.33;2.35;;;;;;;27.90;36.26;99832.81;7633165;32;40586;-78
2022/08/02 08:38:46;;;;;;;3.00;2.00;;;;;;;27.56;37.12;99827.34;7633080;32;37978;-76
2022/08/02 08:43:02;;;;;;;4.45;2.30;;;;;;;27.39;37.37;99830.78;7632208;32;37065;-77
2022/08/02 08:47:19;;;;;;;10.05;2.55;;;;;;;27.95;36.39;99832.50;7631172;32;39371;-77
2022/08/02 08:51:40;;;;;;;3.45;2.08;;;;;;;28.25;36.29;99825.87;7632823;32;40937;-76
2022/08/02 08:55:59;;;;;;;5.05;2.00;;;;;;;28.76;34.46;99839.00;7632531;32;37883;-76
2022/08/02 09:00:17;;;;;;;4.22;2.12;;;;;;;28.69;33.77;99843.78;7632959;32;37894;-77
2022/08/02 09:04:34;;;;;;;8.73;2.15;;;;;;;27.73;34.70;99842.69;7631979;32;39408;-78
2022/08/02 09:08:50;;;;;;;2.90;1.85;;;;;;;28.89;34.14;99847.03;7606463;32;40840;-77
2022/08/02 09:13:19;;;;;;;5.00;2.10;;;;;;;28.80;33.66;99845.44;7606458;32;37935;-77
2022/08/02 09:17:55;;;;;;;4.97;2.00;;;;;;;29.17;31.89;99849.19;7606081;32;37298;-79
2022/08/02 09:22:12;;;;;;;3.00;2.05;;;;;;;29.31;33.69;99851.22;7606525;32;39086;-79
2022/08/02 09:26:29;;;;;;;3.08;2.15;;;;;;;29.52;32.41;99851.25;7606513;32;40774;-78
2022/08/02 09:30:45;;;;;;;7.68;2.10;;;;;;;29.65;32.23;99850.84;7606098;32;38518;-78
2022/08/02 09:35:01;;;;;;;3.40;1.90;;;;;;;29.91;31.73;99853.28;7606476;32;37328;-78
2022/08/02 09:39:17;;;;;;;2.10;1.90;;;;;;;29.31;31.68;99851.22;7605151;32;39369;-79
2022/08/02 09:43:42;;;;;;;3.08;2.17;;;;;;;29.09;33.40;99858.75;7615289;32;39941;-78
2022/08/02 09:48:17;;;;;;;4.15;2.35;;;;;;;29.37;31.72;99856.06;7631942;32;38205;-78
2022/08/02 09:52:35;;;;;;;4.90;2.05;;;;;;;29.28;32.03;99852.00;7631353;32;37821;-79
2022/08/02 09:57:00;;;;;;;4.22;2.25;;;;;;;29.05;33.17;99850.31;7631521;32;39462;-78
2022/08/02 10:01:16;;;;;;;6.60;2.00;;;;;;;29.99;31.90;99839.22;7632082;32;40509;-78
2022/08/02 10:05:57;;;;;;;4.82;2.25;;;;;;;29.85;32.17;99835.22;7629351;32;38706;-76
2022/08/02 10:10:18;;;;;;;3.33;2.25;;;;;;;30.59;31.72;99826.28;7628615;32;37772;-78
2022/08/02 10:14:34;;;;;;;2.80;1.60;;;;;;;31.18;31.55;99828.41;7630561;32;39294;-78
2022/08/02 10:18:53;;;;;;;3.97;2.00;;;;;;;31.06;29.99;99810.81;7629820;32;40003;-76
2022/08/02 10:23:12;;;;;;;2.87;1.80;;;;;;;30.10;31.03;99814.75;7630675;32;37814;-77
2022/08/02 10:27:28;;;;;;;3.83;1.98;;;;;;;30.63;30.93;99808.19;7630587;32;37958;-76
2022/08/02 10:32:23;;;;;;;1.98;1.70;;;;;;;30.95;30.68;99798.78;7628803;32;39551;-75
2022/08/02 10:36:40;;;;;;;6.47;2.10;;;;;;;31.17;29.49;99790.22;7630560;32;39739;-75
2022/08/02 10:40:56;;;;;;;6.53;1.80;;;;;;;31.10;30.36;99787.44;7630539;32;38095;-76
2022/08/02 10:45:15;;;;;;;2.20;1.50;;;;;;;31.21;29.62;99788.19;7631447;32;37242;-76
2022/08/02 10:49:30;;;;;;;3.58;1.90;;;;;;;31.10;30.60;99779.81;7630692;32;39443;-78
2022/08/02 10:54:26;;;;;;;4.80;1.80;;;;;;;31.35;30.17;99793.69;7631361;32;40715;-78
2022/08/02 10:58:42;;;;;;;1.70;1.60;;;;;;;31.49;29.77;99792.00;7621914;32;38088;-78
2022/08/02 11:02:58;;;;;;;2.50;2.00;;;;;;;31.37;30.72;99779.19;7617328;32;37246;-79
2022/08/02 11:07:20;;;;;;;6.45;1.90;;;;;;;31.82;29.34;99782.06;7630119;32;39438;-80
2022/08/02 11:11:55;;;;;;;2.50;1.87;;;;;;;31.04;30.44;99779.44;7628553;32;40728;-80
2022/08/02 11:16:13;;;;;;;2.47;1.62;;;;;;;31.77;29.52;99774.88;7618014;32;38738;-78
2022/08/02 11:20:29;;;;;;;1.77;1.67;;;;;;;32.87;28.09;99776.06;7616383;32;37805;-80
2022/08/02 11:24:48;;;;;;;3.55;1.60;;;;;;;32.25;27.33;99775.19;7629867;32;39368;-80
2022/08/02 11:29:04;;;;;;;2.08;1.50;;;;;;;32.32;28.71;99769.47;7627879;32;39995;-81
2022/08/02 11:33:20;;;;;;;2.35;1.65;;;;;;;32.64;27.12;99765.50;7628908;32;38800;-81
2022/08/02 11:37:41;;;;;;;1.67;1.55;;;;;;;31.97;28.27;99771.44;7626588;32;37097;-79
2022/08/02 11:41:59;;;;;;;1.92;1.73;;;;;;;32.95;28.55;99766.25;7626178;32;39164;-81
2022/08/02 11:46:15;;;;;;;3.47;1.75;;;;;;;33.35;27.58;99748.75;7626429;32;39456;-80
2022/08/02 11:50:31;;;;;;;3.97;1.75;;;;;;;33.39;26.66;99764.41;7628858;32;37487;-80
2022/08/02 11:54:48;;;;;;;1.90;1.50;;;;;;;33.91;26.46;99751.81;7633700;32;36764;-81
2022/08/02 11:59:09;;;;;;;2.10;1.55;;;;;;;34.60;26.69;99752.03;7633408;32;40079;-81
2022/08/02 12:03:42;;;;;;;2.03;1.20;;;;;;;34.29;24.42;99754.31;7632380;32;39693;-76
2022/08/02 12:07:58;;;;;;;2.50;1.40;;;;;;;34.43;25.25;99756.84;7631969;32;37926;-80
2022/08/02 12:12:16;;;;;;;1.92;1.25;;;;;;;34.70;24.30;99749.41;7632829;32;37067;-80
2022/08/02 12:21:25;;;;;;;0.85;0.80;;;;;;;33.14;25.61;99756.31;7632883;32;38132;-81
2022/08/02 12:25:42;;;;;;;10.02;1.42;;;;;;;33.27;24.02;99743.22;7632381;32;37902;-81
2022/08/02 12:30:02;;;;;;;1.23;0.98;;;;;;;33.51;24.80;99746.03;7632871;32;38035;-79
2022/08/02 12:34:20;;;;;;;1.33;0.90;;;;;;;33.53;24.17;99742.78;7632511;32;37831;-81
2022/08/02 12:38:53;;;;;;;0.73;0.73;;;;;;;33.78;23.08;99745.97;7632739;32;40728;-78
2022/08/02 12:43:19;;;;;;;0.90;0.90;;;;;;;34.01;24.02;99733.84;7619159;32;36477;-81
2022/08/02 12:47:44;;;;;;;2.10;1.02;;;;;;;34.47;22.70;99722.81;7632558;32;36995;-81
2022/08/02 12:52:01;;;;;;;2.87;0.93;;;;;;;34.82;22.73;99730.97;7632918;32;38443;-81
2022/08/02 12:56:30;;;;;;;1.85;0.88;;;;;;;34.50;23.88;99730.44;7619583;32;40054;-81
2022/08/02 13:00:55;;;;;;;3.87;0.82;;;;;;;34.27;21.81;99739.00;7632335;32;37693;-80
2022/08/02 13:05:11;;;;;;;0.90;0.90;;;;;;;34.58;23.58;99731.06;7631900;32;36747;-81
2022/08/02 13:09:27;;;;;;;6.35;1.12;;;;;;;34.32;21.88;99724.34;7631934;32;39992;-81
2022/08/02 13:13:44;;;;;;;0.90;0.90;;;;;;;34.13;22.41;99740.06;7632200;32;39916;-80
2022/08/02 13:18:00;;;;;;;1.55;1.05;;;;;;;34.34;20.76;99734.00;7632129;32;36722;-79
2022/08/02 13:22:17;;;;;;;5.75;1.50;;;;;;;35.23;21.39;99732.47;7631878;32;37005;-80
2022/08/02 13:26:34;;;;;;;1.87;1.25;;;;;;;35.54;21.16;99730.84;7618940;32;39427;-80
2022/08/02 13:30:50;;;;;;;1.00;0.90;;;;;;;36.45;21.69;99721.47;7632050;32;40812;-78
2022/08/02 13:35:08;;;;;;;1.37;0.80;;;;;;;36.94;19.90;99717.53;7631827;32;38725;-79
2022/08/02 13:39:33;;;;;;;2.85;1.10;;;;;;;36.80;19.44;99718.00;7632169;32;37163;-79
2022/08/02 13:43:49;;;;;;;2.25;0.90;;;;;;;36.77;19.02;99718.91;7631939;32;39327;-80
2022/08/02 13:48:10;;;;;;;4.40;0.97;;;;;;;36.89;18.58;99706.75;7631714;32;40019;-78
2022/08/02 13:52:33;;;;;;;0.90;0.90;;;;;;;37.00;18.90;99704.37;7631510;32;37644;-80
2022/08/02 13:56:49;;;;;;;1.83;0.82;;;;;;;36.10;18.51;99723.28;7631855;32;37792;-81
2022/08/02 14:01:05;;;;;;;1.98;0.73;;;;;;;36.03;18.77;99710.09;7618180;32;38978;-80
2022/08/02 14:05:21;;;;;;;0.80;0.80;;;;;;;35.70;19.20;99712.19;7631702;32;40871;-80
2022/08/02 14:09:57;;;;;;;2.05;0.80;;;;;;;35.85;19.16;99704.94;7631210;32;39207;-79
2022/08/02 14:14:13;;;;;;;1.33;1.00;;;;;;;34.79;19.04;99702.31;7629541;32;37140;-77
2022/08/02 14:18:32;;;;;;;1.15;0.90;;;;;;;35.62;18.56;99710.81;7631123;32;38303;-77
2022/08/02 14:22:48;;;;;;;0.55;0.55;;;;;;;35.94;18.67;99694.97;7630951;32;41578;-78
2022/08/02 14:27:04;;;;;;;1.10;1.00;;;;;;;36.42;18.59;99696.03;7631285;32;37956;-78
2022/08/02 14:31:20;;;;;;;1.48;1.00;;;;;;;37.11;16.89;99691.84;7631356;32;37108;-78
2022/08/02 14:35:36;;;;;;;1.55;0.80;;;;;;;36.82;17.79;99682.22;7631506;32;40101;-79
2022/08/02 14:39:52;;;;;;;1.12;0.85;;;;;;;36.83;18.07;99689.50;7631141;32;40223;-78
2022/08/02 14:44:15;;;;;;;1.15;0.95;;;;;;;36.87;17.69;99683.69;7630775;32;37905;-80
2022/08/02 14:48:33;;;;;;;0.65;0.65;;;;;;;36.63;16.31;99688.87;7631013;32;38282;-79
2022/08/02 14:52:49;;;;;;;4.47;1.02;;;;;;;36.45;16.47;99686.63;7630752;32;39458;-78
2022/08/02 14:57:08;;;;;;;0.85;0.80;;;;;;;36.62;16.72;99690.16;7630644;32;40927;-79
2022/08/02 15:01:24;;;;;;;0.80;0.80;;;;;;;36.73;16.66;99699.16;7630692;32;37826;-75
2022/08/02 15:05:41;;;;;;;1.05;0.98;;;;;;;36.23;16.93;99695.75;7630117;32;36761;-76
2022/08/02 15:09:57;;;;;;;0.73;0.73;;;;;;;36.19;16.00;99697.09;7630282;32;39082;-75
2022/08/02 15:14:13;;;;;;;0.90;0.80;;;;;;;35.45;16.58;99696.66;7629584;32;39579;-76
2022/08/02 15:18:29;;;;;;;2.10;1.23;;;;;;;35.54;17.20;99696.81;7626648;32;37562;-77
2022/08/02 15:22:45;;;;;;;2.22;0.70;;;;;;;35.64;18.76;99697.78;7615779;32;36972;-75
2022/08/02 15:27:09;;;;;;;2.08;1.02;;;;;;;35.90;17.32;99693.03;7631130;32;40082;-77
2022/08/02 15:31:25;;;;;;;6.57;1.00;;;;;;;35.64;17.17;99685.66;7632397;32;39898;-76
2022/08/02 15:35:49;;;;;;;1.52;0.90;;;;;;;36.25;17.82;99690.44;7618727;32;37870;-76
2022/08/02 15:40:06;;;;;;;1.35;0.75;;;;;;;35.81;16.49;99687.22;7632215;32;36935;-76
2022/08/02 15:44:23;;;;;;;0.82;0.77;;;;;;;36.41;17.78;99692.41;7632484;32;39993;-76
2022/08/02 15:48:40;;;;;;;0.85;0.85;;;;;;;36.35;15.52;99682.84;7631945;32;40843;-76
2022/08/02 15:52:56;;;;;;;0.80;0.80;;;;;;;36.22;16.55;99682.84;7632133;32;37889;-76
2022/08/02 15:57:12;;;;;;;0.80;0.80;;;;;;;36.20;18.23;99685.28;7632227;32;37001;-76
2022/08/02 16:01:29;;;;;;;2.05;0.90;;;;;;;36.14;17.07;99689.94;7631772;32;40844;-77
2022/08/02 16:05:53;;;;;;;1.58;1.00;;;;;;;36.32;18.00;99686.59;7630968;32;39634;-76
2022/08/02 16:10:10;;;;;;;1.55;0.60;;;;;;;35.91;18.10;99686.13;7631772;32;37826;-76
2022/08/02 16:14:26;;;;;;;0.98;0.90;;;;;;;36.16;18.47;99698.00;7631953;32;36990;-77
2022/08/02 16:18:42;;;;;;;3.55;0.80;;;;;;;35.88;18.58;99695.53;7631845;32;39315;-75
2022/08/02 16:22:58;;;;;;;1.33;0.85;;;;;;;35.46;18.86;99686.94;7631035;32;38455;-76
2022/08/02 16:27:19;;;;;;;1.05;0.80;;;;;;;35.04;18.94;99700.91;7631287;32;37637;-77
2022/08/02 16:31:35;;;;;;;1.95;0.88;;;;;;;34.59;19.44;99696.66;7631736;32;37613;-76
2022/08/02 16:35:58;;;;;;;0.70;0.70;;;;;;;34.89;20.54;99689.16;7630293;32;40066;-77
2022/08/02 16:40:14;;;;;;;3.97;0.95;;;;;;;35.04;19.64;99695.25;7629876;32;39905;-78
2022/08/02 16:44:32;;;;;;;6.72;0.80;;;;;;;34.50;19.09;99698.53;7632432;32;37833;-77
2022/08/02 16:48:48;;;;;;;1.45;0.73;;;;;;;34.18;19.37;99712.06;7631507;32;36253;-78
2022/08/02 16:53:06;;;;;;;0.95;0.68;;;;;;;34.35;20.78;99707.31;7631992;32;39329;-77
2022/08/02 16:57:22;;;;;;;3.33;1.00;;;;;;;34.01;20.22;99719.72;7632127;32;40008;-77
2022/08/02 17:01:57;;;;;;;6.25;0.82;;;;;;;33.90;21.09;99712.66;7616421;32;37968;-77
2022/08/02 17:06:26;;;;;;;1.67;0.70;;;;;;;33.54;21.14;99716.12;7631804;32;37200;-77
2022/08/02 17:10:43;;;;;;;2.25;0.70;;;;;;;33.11;21.58;99717.59;7632414;32;39466;-78
2022/08/02 17:14:59;;;;;;;7.10;1.12;;;;;;;33.10;22.22;99714.00;7632274;32;40627;-76
2022/08/02 17:19:35;;;;;;;2.03;0.65;;;;;;;33.26;23.11;99723.88;7620175;32;38222;-77
2022/08/02 17:23:53;;;;;;;4.85;0.85;;;;;;;32.87;22.38;99728.84;7632489;32;37106;-76
2022/08/02 17:28:24;;;;;;;1.10;0.50;;;;;;;33.07;22.70;99719.69;7631756;32;38913;-76
2022/08/02 17:32:48;;;;;;;8.73;1.25;;;;;;;33.07;23.18;99728.16;7619775;32;39959;-76
2022/08/02 17:37:04;;;;;;;2.40;0.90;;;;;;;32.85;23.28;99731.31;7631954;32;38703;-77
2022/08/02 17:41:21;;;;;;;0.85;0.85;;;;;;;32.45;24.02;99733.84;7631914;32;36767;-76
2022/08/02 17:45:54;;;;;;;5.78;1.05;;;;;;;32.40;24.53;99742.78;7631957;32;40111;-76
2022/08/02 17:50:17;;;;;;;3.83;0.70;;;;;;;32.25;24.57;99741.37;7630379;32;39923;-76
2022/08/02 17:54:35;;;;;;;1.85;0.98;;;;;;;31.88;24.82;99748.59;7632031;32;36863;-78
2022/08/02 17:58:51;;;;;;;0.80;0.80;;;;;;;31.48;25.71;99748.13;7631690;32;36778;-77
2022/08/02 18:03:08;;;;;;;1.02;0.88;;;;;;;31.41;25.92;99763.88;7628892;32;40151;-76
2022/08/02 18:07:27;;;;;;;2.17;0.75;;;;;;;31.01;26.87;99757.75;7630574;32;39144;-77
2022/08/02 18:12:03;;;;;;;1.20;0.82;;;;;;;30.64;27.35;99770.38;7629785;32;38748;-76
2022/08/02 18:16:19;;;;;;;3.10;1.05;;;;;;;30.43;27.82;99774.09;7630330;32;37771;-76
2022/08/02 18:20:36;;;;;;;1.33;0.90;;;;;;;30.13;29.00;99789.44;7624992;32;158720;-77
2022/08/02 18:24:54;;;;;;;1.10;0.85;;;;;;;29.94;29.16;99792.66;7615523;32;42463;-77
2022/08/02 18:29:10;;;;;;;1.98;1.00;;;;;;;29.70;28.88;99791.47;7630223;32;39670;-75
2022/08/02 18:33:27;;;;;;;1.23;0.88;;;;;;;29.57;29.64;99802.31;7630374;32;36999;-76
2022/08/02 18:38:03;;;;;;;4.65;1.65;;;;;;;29.48;29.52;99811.13;7629389;32;40427;-78
2022/08/02 18:42:25;;;;;;;2.83;1.30;;;;;;;29.24;29.91;99807.09;7630505;32;40838;-77
2022/08/02 18:46:41;;;;;;;4.12;1.70;;;;;;;29.02;29.49;99817.44;7631189;32;38748;-80
2022/08/02 18:50:59;;;;;;;2.37;1.65;;;;;;;28.80;30.91;99824.97;7631185;32;37822;-77
2022/08/02 18:55:15;;;;;;;5.68;1.30;;;;;;;28.81;30.89;99827.38;7630981;32;39145;-76
2022/08/02 18:59:51;;;;;;;2.40;1.30;;;;;;;28.67;31.26;99829.34;7626894;32;40218;-76
2022/08/02 19:04:08;;;;;;;3.08;1.80;;;;;;;28.42;31.51;99821.56;7616874;32;37934;-76
2022/08/02 19:08:24;;;;;;;2.92;1.60;;;;;;;28.29;31.08;99821.13;7628348;32;37014;-74
2022/08/02 19:12:41;;;;;;;2.28;1.37;;;;;;;28.33;30.99;99824.72;7630386;32;39036;-77
2022/08/02 19:17:00;;;;;;;1.40;1.10;;;;;;;27.80;32.13;99836.34;7625113;32;40837;-75
2022/08/02 19:21:37;;;;;;;1.23;1.02;;;;;;;27.89;32.49;99834.84;7630042;32;39229;-75
2022/08/02 19:26:13;;;;;;;2.17;1.30;;;;;;;27.72;33.26;99830.69;7630587;32;37271;-76
2022/08/02 19:30:30;;;;;;;1.62;1.02;;;;;;;27.51;33.95;99830.50;7630639;32;40211;-74
2022/08/02 19:34:46;;;;;;;2.22;1.00;;;;;;;27.39;33.80;99837.22;7616491;32;40842;-74
2022/08/02 19:39:04;;;;;;;1.17;0.95;;;;;;;27.38;33.87;99829.97;7627474;32;38097;-74
2022/08/02 19:43:21;;;;;;;4.43;1.15;;;;;;;27.08;33.41;99835.63;7627771;32;37216;-75
2022/08/02 19:47:57;;;;;;;1.08;0.98;;;;;;;27.22;32.75;99832.22;7626712;32;40430;-74
2022/08/02 19:52:14;;;;;;;2.20;1.05;;;;;;;26.94;33.68;99837.09;7628494;32;40758;-75
2022/08/02 19:56:36;;;;;;;2.17;1.17;;;;;;;26.69;35.46;99833.19;7627840;32;38325;-74
2022/08/02 20:00:53;;;;;;;2.75;1.00;;;;;;;26.77;33.52;99823.72;7629358;32;36837;-75
2022/08/02 20:05:09;;;;;;;2.90;1.00;;;;;;;26.68;33.97;99826.81;7628441;32;39459;-76
2022/08/02 20:09:39;;;;;;;4.90;1.45;;;;;;;26.65;34.59;99835.13;7629805;32;40581;-77
2022/08/02 20:14:15;;;;;;;1.62;1.10;;;;;;;26.39;36.36;99831.19;7631304;32;38387;-76
2022/08/02 20:18:32;;;;;;;3.47;1.15;;;;;;;26.16;36.67;99834.81;7633268;32;36685;-78
2022/08/02 20:27:44;;;;;;;4.60;1.10;;;;;;;25.85;37.95;99847.09;7632798;32;39882;-76
2022/08/02 20:32:06;;;;;;;3.83;0.95;;;;;;;25.70;38.33;99850.81;7632909;32;38001;-76
2022/08/02 20:36:23;;;;;;;2.53;1.40;;;;;;;25.73;37.83;99845.28;7632428;32;37896;-74